createdAt,value
2023-08-17T09:57:43.971Z,101952.41
2023-08-17T10:12:54.490Z,101925.69
2023-08-17T10:23:22.611Z,101936.97
2023-08-17T10:33:24.340Z,101924.69
2023-08-17T10:43:33.492Z,101940.34
2023-08-17T10:53:35.712Z,101926.84
2023-08-17T11:03:37.765Z,101917.75
2023-08-17T11:13:40.341Z,101935.06
2023-08-17T11:23:41.943Z,101927.09
2023-08-17T12:43:50.888Z,101903.13
2023-08-17T12:53:52.477Z,101902.63
2023-08-17T13:03:54.056Z,101905.06
2023-08-17T13:13:55.578Z,101909.09
2023-08-17T13:23:57.129Z,101907.84
2023-08-17T13:33:58.623Z,101916.56
2023-08-17T13:57:21.785Z,101907.50
2023-08-17T14:07:23.276Z,101889.13
2023-08-17T14:17:24.773Z,101879.78
2023-08-17T14:27:26.466Z,101887.59
2023-08-17T14:37:28.179Z,101877.47
2023-08-17T14:47:30.124Z,101868.28
2023-08-17T14:57:31.663Z,101860.16
2023-08-17T15:07:36.713Z,101851.97
2023-08-17T15:17:38.712Z,101846.00
2023-08-17T15:27:40.305Z,101820.09
2023-08-17T15:37:42.270Z,101832.13
2023-08-17T15:47:43.718Z,101820.09
2023-08-17T15:57:45.267Z,101814.81
2023-08-17T16:07:46.636Z,101815.16
2023-08-17T16:17:48.045Z,101809.59
2023-08-17T16:27:49.464Z,101801.69
2023-08-17T16:37:50.847Z,101792.88
2023-08-17T16:47:52.262Z,101794.81
2023-08-17T16:57:57.781Z,101793.13
2023-08-17T17:07:59.452Z,101791.31
2023-08-17T17:18:00.924Z,101784.31
2023-08-17T17:28:02.371Z,101779.06
2023-08-17T17:38:03.892Z,101778.16
2023-08-17T17:48:05.575Z,101773.78
2023-08-17T17:58:07.402Z,101755.13
2023-08-17T18:08:08.919Z,101766.19
2023-08-17T18:18:10.515Z,101770.47
2023-08-17T18:28:12.087Z,101780.91
2023-08-17T18:38:13.642Z,101800.19
2023-08-17T18:48:16.054Z,101805.94
2023-08-17T18:58:19.480Z,101812.53
2023-08-17T19:08:20.964Z,101820.50
2023-08-17T19:18:22.704Z,101810.91
2023-08-17T19:28:24.381Z,101815.88
2023-08-17T19:38:25.843Z,101814.19
2023-08-17T19:48:27.492Z,101826.53
2023-08-17T19:58:28.915Z,101820.09
2023-08-17T20:08:30.436Z,101816.75
2023-08-17T20:18:32.606Z,101825.28
2023-08-17T20:28:34.070Z,101830.09
2023-08-17T20:38:36.111Z,101835.94
2023-08-17T20:48:38.182Z,101837.41
2023-08-17T20:58:39.723Z,101842.81
2023-08-17T21:08:41.124Z,101842.75
2023-08-17T21:18:42.508Z,101827.84
2023-08-17T21:28:43.879Z,101824.72
2023-08-17T21:38:45.310Z,101826.03
2023-08-17T21:48:46.712Z,101824.22
2023-08-17T21:58:48.165Z,101825.66
2023-08-17T22:08:49.517Z,101818.56
2023-08-17T22:18:51.431Z,101823.78
2023-08-17T22:28:52.772Z,101823.50
2023-08-17T22:38:54.170Z,101812.53
2023-08-17T22:48:55.633Z,101795.94
2023-08-17T22:58:57.052Z,101778.22
2023-08-17T23:08:58.411Z,101778.13
2023-08-17T23:18:59.821Z,101780.31
2023-08-17T23:29:01.356Z,101775.97
2023-08-17T23:39:02.882Z,101778.75
2023-08-17T23:49:04.305Z,101771.53
2023-08-17T23:59:06.071Z,101773.56
